This is the latest recevied weather packets stored in our database for station/object DM1RG-6. If no packets are shown the sender has not sent any weather packets the latest 10 day(s).
| Time | Temp. | Humidity | Pressure | Rain* | Wind** | Luminosity | Snow |
|---|---|---|---|---|---|---|---|
| 1777579563 | 10.56° C | 67% | 1028.7 hPa | 0 mm | - | - | - |
| 1777578843 | 10.56° C | 66% | 1028.6 hPa | 0 mm | - | - | - |
| 1777577763 | 11.11° C | 66% | 1028.6 hPa | 0 mm | - | - | - |
| 1777577043 | 11.11° C | 64% | 1028.4 hPa | 0 mm | - | - | - |
| 1777572363 | 17.78° C | 43% | 1028.4 hPa | 0 mm | - | - | - |
| 1777571643 | 17.78° C | 43% | 1028.3 hPa | 0 mm | - | - | - |
| 1777571284 | 17.78° C | 42% | 1028.1 hPa | 0 mm | - | - | - |
| 1777570563 | 18.33° C | 42% | 1028.1 hPa | 0 mm | - | - | - |
| 1777567324 | 18.33° C | 40% | 1028.5 hPa | 0 mm | - | - | - |
| 1777566963 | 18.89° C | 40% | 1028.4 hPa | 0 mm | - | - | - |
| 1777565884 | 18.33° C | 39% | 1028.3 hPa | 0 mm | - | - | - |
| 1777563363 | 18.33° C | 39% | 1028.5 hPa | 0 mm | - | - | - |
| 1777562643 | 18.33° C | 38% | 1028.8 hPa | 0 mm | - | - | - |
| 1777557963 | 18.33° C | 38% | 1029.5 hPa | 0 mm | - | - | - |
| 1777557243 | 18.33° C | 38% | 1029.4 hPa | 0 mm | - | - | - |
| 1777556164 | 18.33° C | 38% | 1029.3 hPa | 0 mm | - | - | - |
| 1777555804 | 18.89° C | 38% | 1029.8 hPa | 0 mm | - | - | - |
| 1777555443 | 18.33° C | 38% | 1029.6 hPa | 0 mm | - | - | - |
| 1777554723 | 18.33° C | 38% | 1029.6 hPa | 0 mm | - | - | - |
| 1777553284 | 17.78° C | 39% | 1030.1 hPa | 0 mm | - | - | - |
| 1777552204 | 17.78° C | 39% | 1030.4 hPa | 0 mm | - | - | - |
| 1777549684 | 16.67° C | 38% | 1030.8 hPa | 0 mm | - | - | - |
| 1777548243 | 16.11° C | 40% | 1030.8 hPa | 0 mm | - | - | - |
| 1777547884 | 16.67° C | 38% | 1031 hPa | 0 mm | - | - | - |
| 1777547164 | 15.56° C | 39% | 1031.2 hPa | 0 mm | - | - | - |
* Rain latest hour (hover to see other rain measurements)
** Current wind speed in m/s (hover to see current wind gust speed)